Terminal Aerodrome Forecast
Issued by NWS Bismarck, ND

Home | Current Version | Previous Version | Text Only | Print | Product List | Glossary On
Versions: 1 2 3 4 5 6 7 8 9 10 11 12 13
000
FTUS43 KBIS 030500
TAFISN
TAF
KISN 030520Z 0306/0406 VRB04KT P6SM SCT250
     FM031600 12013KT P6SM VCTS BKN100CB
     FM032300 28012G20KT P6SM VCTS BKN050CB=

USA.gov is the U.S. government's official web portal to all federal, state and local government web resources and services.